Time;durP1;ratioP1;P1;durP2;ratioP2;P2;SDS_P1;SDS_P2;PMS_P1;PMS_P2;Temp;Humidity;BMP_temperature;BMP_pressure;BME280_temperature;BME280_humidity;BME280_pressure;Samples;Min_cycle;Max_cycle;Signal;HPM_P1;HPM_P2
2021/07/03 00:00:52;;;;;;;6.55;4.72;;;;;;;18.64;66.36;100589.34;1728451;81;25916;-70
2021/07/03 00:03:18;;;;;;;6.70;4.45;;;;;;;18.64;66.38;100599.34;1729234;79;26473;-70
2021/07/03 00:05:46;;;;;;;6.37;4.80;;;;;;;18.61;66.45;100600.94;1735404;79;25754;-70
2021/07/03 00:08:15;;;;;;;8.98;4.30;;;;;;;18.60;66.51;100597.81;1724693;80;28221;-70
2021/07/03 00:10:43;;;;;;;9.75;6.00;;;;;;;18.59;66.59;100593.37;1724993;81;25874;-70
2021/07/03 00:13:12;;;;;;;8.90;5.37;;;;;;;18.57;66.63;100593.98;1723700;81;25794;-70
2021/07/03 00:15:38;;;;;;;10.95;5.42;;;;;;;18.54;66.74;100594.22;1724890;80;26214;-70
2021/07/03 00:18:05;;;;;;;8.33;5.45;;;;;;;18.52;66.84;100589.40;1728412;81;26131;-70
2021/07/03 00:20:32;;;;;;;11.08;5.65;;;;;;;18.51;66.89;100598.03;1717877;80;25780;-70
2021/07/03 00:22:58;;;;;;;12.43;6.17;;;;;;;18.49;66.91;100590.01;1743483;81;25739;-70
2021/07/03 00:25:24;;;;;;;9.65;5.90;;;;;;;18.50;66.93;100596.30;1721320;81;26394;-70
2021/07/03 00:27:50;;;;;;;9.83;6.22;;;;;;;18.47;66.89;100597.41;1721848;80;25815;-70
2021/07/03 00:30:16;;;;;;;9.98;5.90;;;;;;;18.45;66.89;100597.15;1721231;80;25686;-70
2021/07/03 00:32:43;;;;;;;9.63;5.70;;;;;;;18.42;66.94;100599.61;1723401;80;28537;-70
2021/07/03 00:35:11;;;;;;;7.08;5.35;;;;;;;18.41;66.99;100597.88;1731315;80;25739;-70
2021/07/03 00:37:39;;;;;;;9.83;6.25;;;;;;;18.38;66.98;100590.45;1724711;81;25779;-70
2021/07/03 00:40:07;;;;;;;13.88;6.80;;;;;;;18.37;67.00;100592.80;1730626;81;25822;-70
2021/07/03 00:42:33;;;;;;;12.75;6.40;;;;;;;18.37;66.98;100594.16;1719589;81;25760;-70
2021/07/03 00:45:02;;;;;;;8.98;6.00;;;;;;;18.35;67.02;100598.83;1723781;81;27516;-70
2021/07/03 00:47:28;;;;;;;12.37;6.10;;;;;;;18.33;67.01;100600.80;1718893;81;25768;-70
2021/07/03 00:49:55;;;;;;;9.50;6.00;;;;;;;18.31;67.06;100598.20;1726423;80;26053;-70
2021/07/03 00:52:22;;;;;;;8.63;5.78;;;;;;;18.29;67.06;100604.23;1719156;81;26400;-70
2021/07/03 00:54:50;;;;;;;15.80;6.55;;;;;;;18.25;67.11;100601.88;1717640;81;26235;-70
2021/07/03 00:57:18;;;;;;;10.55;6.15;;;;;;;18.22;67.18;100605.69;1721678;81;27563;-70
2021/07/03 00:59:47;;;;;;;9.25;6.62;;;;;;;18.17;67.27;100598.42;1713695;81;25755;-70
2021/07/03 01:02:17;;;;;;;11.30;6.17;;;;;;;18.14;67.37;100595.94;1716523;80;25794;-70
2021/07/03 01:04:46;;;;;;;10.25;6.70;;;;;;;18.11;67.42;100597.52;1717538;81;26433;-69
2021/07/03 01:07:13;;;;;;;9.03;6.22;;;;;;;18.10;67.47;100597.15;1718738;81;25780;-70
2021/07/03 01:09:42;;;;;;;10.45;5.78;;;;;;;18.08;67.53;100599.11;1715344;81;27617;-69
2021/07/03 01:12:10;;;;;;;8.93;6.22;;;;;;;18.08;67.54;100600.47;1717063;81;26305;-70
2021/07/03 01:14:46;;;;;;;17.98;6.75;;;;;;;18.05;67.58;100597.98;1715259;81;26608;-69
2021/07/03 01:17:14;;;;;;;12.25;6.80;;;;;;;18.02;67.69;100596.86;1723529;81;26605;-69
2021/07/03 01:19:41;;;;;;;11.20;5.90;;;;;;;18.00;67.71;100602.89;1724963;80;25787;-70
2021/07/03 01:22:11;;;;;;;10.48;6.53;;;;;;;18.00;67.78;100602.89;1727936;80;27406;-69
2021/07/03 01:24:40;;;;;;;11.65;6.75;;;;;;;17.95;67.90;100615.44;1728741;80;25718;-70
2021/07/03 01:27:08;;;;;;;8.45;6.05;;;;;;;17.90;68.00;100608.62;1718217;81;26544;-70
2021/07/03 01:29:37;;;;;;;13.65;5.45;;;;;;;17.84;68.41;100605.39;1730056;80;26317;-70
2021/07/03 01:32:04;;;;;;;10.93;5.87;;;;;;;17.78;68.54;100599.06;1727168;81;25848;-69
2021/07/03 01:34:34;;;;;;;10.10;6.40;;;;;;;17.76;68.62;100603.73;1728604;81;28171;-69
2021/07/03 01:37:00;;;;;;;9.75;6.45;;;;;;;17.75;68.74;100606.06;1727223;81;25790;-69
2021/07/03 01:39:28;;;;;;;11.70;6.65;;;;;;;17.73;68.85;100604.45;1728168;80;25780;-69
2021/07/03 01:41:55;;;;;;;13.38;6.47;;;;;;;17.70;68.88;100604.19;1730200;80;26482;-69
2021/07/03 01:44:25;;;;;;;10.82;6.22;;;;;;;17.68;69.06;100608.85;1727422;81;26390;-69
2021/07/03 01:46:56;;;;;;;14.55;7.17;;;;;;;17.64;69.15;100600.53;1727833;80;27990;-69
2021/07/03 01:49:25;;;;;;;11.10;6.65;;;;;;;17.60;69.40;100603.58;1724112;81;25958;-70
2021/07/03 01:51:58;;;;;;;12.25;6.28;;;;;;;17.57;69.40;100607.38;1717379;81;25779;-70
2021/07/03 01:54:25;;;;;;;11.68;6.62;;;;;;;17.54;69.54;100607.61;1725929;81;25984;-70
2021/07/03 01:56:58;;;;;;;15.18;7.75;;;;;;;17.51;69.66;100610.54;1728483;81;25808;-70
2021/07/03 01:59:27;;;;;;;13.05;6.58;;;;;;;17.47;69.84;100604.97;1722197;81;27452;-70
2021/07/03 02:01:55;;;;;;;9.18;6.47;;;;;;;17.41;69.90;100606.77;1730916;80;25911;-70
2021/07/03 02:04:23;;;;;;;15.90;7.12;;;;;;;17.36;70.02;100608.94;1729157;81;25705;-69
2021/07/03 02:06:49;;;;;;;13.75;6.92;;;;;;;17.32;70.12;100611.49;1720128;81;26442;-69
2021/07/03 02:09:18;;;;;;;15.43;7.47;;;;;;;17.28;70.29;100604.56;1732733;81;25712;-70
2021/07/03 02:11:44;;;;;;;13.20;7.87;;;;;;;17.26;70.38;100610.58;1735571;81;28006;-70
2021/07/03 02:14:13;;;;;;;15.80;7.60;;;;;;;17.25;70.51;100606.13;1733411;80;25819;-69
2021/07/03 02:16:41;;;;;;;16.80;7.83;;;;;;;17.16;70.63;100590.92;1733795;81;25693;-69
2021/07/03 02:19:10;;;;;;;11.53;6.50;;;;;;;17.26;70.63;100603.31;1728993;81;27880;-69
2021/07/03 02:21:37;;;;;;;15.95;7.17;;;;;;;17.29;70.56;100607.64;1732906;81;25760;-69
2021/07/03 02:24:06;;;;;;;11.45;6.62;;;;;;;17.30;70.60;100609.38;1730693;81;27416;-70
2021/07/03 02:26:33;;;;;;;10.75;7.10;;;;;;;17.29;70.64;100613.06;1723371;80;25827;-69
2021/07/03 02:29:01;;;;;;;10.70;7.50;;;;;;;17.29;70.71;100604.94;1726840;81;25807;-70
2021/07/03 02:31:33;;;;;;;16.67;8.93;;;;;;;17.29;70.75;100604.94;1717424;81;26501;-70
2021/07/03 02:34:05;;;;;;;13.38;7.67;;;;;;;17.32;70.72;100603.36;1729853;81;25901;-69
2021/07/03 02:36:33;;;;;;;15.68;8.50;;;;;;;17.31;70.72;100601.14;1738506;80;28468;-70
2021/07/03 02:39:01;;;;;;;16.90;7.87;;;;;;;17.31;70.94;100605.70;1727312;81;26350;-70
2021/07/03 02:41:27;;;;;;;11.88;7.28;;;;;;;17.27;71.00;100601.47;1727027;80;25803;-69
2021/07/03 02:43:53;;;;;;;14.43;8.10;;;;;;;17.25;71.11;100598.01;1704843;82;25866;-69
2021/07/03 02:46:20;;;;;;;16.12;8.20;;;;;;;17.20;71.14;100588.86;1677204;83;26063;-70
2021/07/03 02:48:46;;;;;;;16.12;8.13;;;;;;;17.27;71.16;100602.34;1700606;82;27576;-69
2021/07/03 02:51:12;;;;;;;15.75;7.33;;;;;;;17.27;71.23;100598.28;1685461;83;25816;-69
2021/07/03 02:53:39;;;;;;;18.55;8.20;;;;;;;17.27;71.19;100598.77;1677292;83;25727;-70
2021/07/03 02:56:08;;;;;;;12.95;7.47;;;;;;;17.27;71.21;100603.70;1680568;83;25809;-69
2021/07/03 02:58:35;;;;;;;17.87;8.13;;;;;;;17.28;71.33;100607.27;1680305;82;26399;-69
2021/07/03 03:01:04;;;;;;;12.10;7.80;;;;;;;17.25;71.29;100607.48;1687285;82;29716;-69
2021/07/03 03:03:32;;;;;;;11.70;8.00;;;;;;;17.23;71.47;100602.18;1681555;82;25824;-69
2021/07/03 03:05:58;;;;;;;29.27;8.48;;;;;;;17.20;71.45;100599.20;1677629;83;25802;-69
2021/07/03 03:08:24;;;;;;;13.80;7.97;;;;;;;17.19;71.46;100597.95;1671206;83;26184;-70
2021/07/03 03:10:50;;;;;;;18.67;7.95;;;;;;;17.19;71.51;100593.41;1679887;83;25690;-69
2021/07/03 03:13:15;;;;;;;12.85;7.60;;;;;;;17.18;71.59;100595.73;1673016;82;27457;-69
2021/07/03 03:15:41;;;;;;;14.07;7.37;;;;;;;17.16;71.57;100593.63;1684219;83;26168;-69
2021/07/03 03:18:09;;;;;;;11.43;7.35;;;;;;;17.16;71.62;100596.34;1681170;82;25763;-69
2021/07/03 03:20:35;;;;;;;17.62;7.90;;;;;;;17.14;71.59;100591.52;1675725;82;25767;-69
2021/07/03 03:23:02;;;;;;;9.80;7.90;;;;;;;17.10;71.56;100593.20;1672857;82;25691;-69
2021/07/03 03:25:28;;;;;;;12.45;8.00;;;;;;;17.00;71.60;100579.94;1673818;83;27482;-69
2021/07/03 03:27:54;;;;;;;21.97;8.95;;;;;;;17.03;71.64;100593.25;1674386;82;25864;-69
2021/07/03 03:30:20;;;;;;;17.77;8.25;;;;;;;17.01;71.71;100594.72;1683584;82;26370;-69
2021/07/03 03:32:46;;;;;;;20.02;8.63;;;;;;;16.99;71.77;100595.80;1681217;82;25734;-69
2021/07/03 03:35:14;;;;;;;14.10;8.78;;;;;;;17.01;71.82;100596.56;1675916;82;25791;-69
2021/07/03 03:37:40;;;;;;;13.43;8.70;;;;;;;17.03;71.85;100597.31;1681652;83;27446;-69
2021/07/03 03:40:08;;;;;;;14.43;8.95;;;;;;;17.00;71.98;100597.53;1684303;82;27299;-69
2021/07/03 03:42:34;;;;;;;16.82;9.10;;;;;;;16.96;72.01;100595.53;1686997;82;26247;-69
2021/07/03 03:45:00;;;;;;;15.30;8.40;;;;;;;16.98;72.02;100607.12;1692711;82;25883;-69
2021/07/03 03:47:25;;;;;;;14.20;8.63;;;;;;;16.97;72.10;100599.10;1686360;82;25811;-70
2021/07/03 03:49:52;;;;;;;13.88;8.78;;;;;;;16.99;72.12;100596.67;1682921;82;27424;-70
2021/07/03 03:52:17;;;;;;;16.25;9.05;;;;;;;16.99;72.06;100590.39;1667571;82;25858;-69
2021/07/03 03:54:43;;;;;;;18.32;10.08;;;;;;;16.97;72.07;100591.84;1686981;82;25803;-70
2021/07/03 03:57:22;;;;;;;12.60;8.53;;;;;;;16.94;72.03;100588.00;1673677;82;25785;-69
2021/07/03 03:59:51;;;;;;;24.00;10.03;;;;;;;16.93;72.01;100584.05;1672280;82;25715;-70
2021/07/03 04:02:17;;;;;;;13.08;10.08;;;;;;;16.92;72.01;100582.31;1673602;83;27497;-69
2021/07/03 04:04:43;;;;;;;15.10;9.35;;;;;;;16.90;72.05;100586.97;1675717;83;25736;-69
2021/07/03 04:07:11;;;;;;;15.30;9.33;;;;;;;16.90;72.09;100583.78;1680251;82;25720;-69
2021/07/03 04:09:39;;;;;;;13.03;8.48;;;;;;;16.93;72.06;100583.56;1693262;82;25771;-69
2021/07/03 04:12:12;;;;;;;18.10;9.78;;;;;;;16.96;72.08;100579.28;1685990;82;25579;-70
2021/07/03 04:14:38;;;;;;;13.15;8.68;;;;;;;16.99;72.10;100585.84;1696245;82;27867;-69
2021/07/03 04:17:04;;;;;;;19.80;9.10;;;;;;;17.02;72.09;100586.97;1690261;82;26163;-69
2021/07/03 04:19:32;;;;;;;17.27;9.50;;;;;;;17.05;72.03;100582.69;1685624;83;25874;-70
2021/07/03 04:22:00;;;;;;;13.10;9.70;;;;;;;17.09;72.07;100584.20;1693844;83;25830;-71
2021/07/03 04:24:26;;;;;;;12.88;8.83;;;;;;;17.17;72.07;100585.87;1667770;83;25491;-71
2021/07/03 04:26:52;;;;;;;14.98;9.25;;;;;;;17.20;72.00;100585.66;1696019;83;28183;-71
2021/07/03 04:29:20;;;;;;;19.25;9.55;;;;;;;17.26;72.03;100579.42;1689834;83;26368;-70
2021/07/03 04:31:46;;;;;;;15.35;8.68;;;;;;;17.33;72.01;100576.16;1701182;83;25738;-70
2021/07/03 04:34:15;;;;;;;17.65;8.38;;;;;;;17.40;71.97;100576.09;1695753;82;25965;-70
2021/07/03 04:36:41;;;;;;;13.93;9.20;;;;;;;17.48;71.91;100574.18;1699778;82;25786;-70
2021/07/03 04:39:07;;;;;;;11.93;9.03;;;;;;;17.57;71.90;100576.22;1692204;83;27413;-71
2021/07/03 04:41:37;;;;;;;15.80;8.70;;;;;;;17.66;71.86;100574.22;1688284;82;26233;-70
2021/07/03 04:44:18;;;;;;;23.73;8.75;;;;;;;17.75;71.80;100573.53;1689557;83;25732;-71
2021/07/03 04:46:35;;;;;;;16.42;7.97;;;;;;;17.82;71.71;100577.52;1685249;83;25886;-71
2021/07/03 04:49:03;;;;;;;10.55;7.65;;;;;;;17.90;71.69;100573.38;1700841;82;25678;-71
2021/07/03 04:51:33;;;;;;;14.95;8.45;;;;;;;17.99;71.60;100578.11;1692196;82;27603;-70
2021/07/03 04:53:59;;;;;;;15.60;7.87;;;;;;;18.06;71.55;100578.02;1692691;83;25742;-71
2021/07/03 04:56:25;;;;;;;17.07;9.35;;;;;;;18.14;71.48;100576.95;1692021;83;26323;-71
2021/07/03 04:58:51;;;;;;;13.78;7.97;;;;;;;18.22;71.38;100576.33;1686088;82;25787;-69
2021/07/03 05:01:20;;;;;;;12.70;8.00;;;;;;;18.28;71.29;100578.09;1684990;82;26199;-69
2021/07/03 05:03:48;;;;;;;17.92;7.83;;;;;;;18.33;71.18;100579.09;1688013;83;27582;-70
2021/07/03 05:06:16;;;;;;;17.48;8.48;;;;;;;18.37;71.08;100584.66;1698236;82;25799;-71
2021/07/03 05:08:43;;;;;;;16.65;8.48;;;;;;;18.43;71.06;100574.69;1692807;82;26459;-70
2021/07/03 05:11:11;;;;;;;12.73;7.75;;;;;;;18.48;70.96;100577.91;1694119;83;25828;-71
2021/07/03 05:13:37;;;;;;;16.05;8.08;;;;;;;18.54;70.92;100577.93;1689144;83;26462;-70
2021/07/03 05:16:07;;;;;;;14.63;6.85;;;;;;;18.57;70.77;100582.63;1691668;83;27556;-70
2021/07/03 05:18:34;;;;;;;19.70;9.05;;;;;;;18.63;70.72;100578.61;1696140;83;25939;-73
2021/07/03 05:21:00;;;;;;;11.70;7.40;;;;;;;18.64;70.59;100578.48;1695883;82;25897;-69
2021/07/03 05:23:26;;;;;;;11.43;6.83;;;;;;;18.69;70.55;100584.42;1679458;82;26378;-71
2021/07/03 05:25:54;;;;;;;13.32;6.70;;;;;;;18.72;70.47;100577.39;1724967;81;26410;-71
2021/07/03 05:28:23;;;;;;;26.15;7.28;;;;;;;18.78;70.38;100578.77;1719897;80;28137;-71
2021/07/03 05:30:50;;;;;;;11.80;6.83;;;;;;;18.81;70.22;100582.11;1719650;80;25778;-71
2021/07/03 05:33:23;;;;;;;15.03;7.22;;;;;;;18.85;70.11;100577.79;1722770;81;25803;-71
2021/07/03 05:35:53;;;;;;;12.37;6.78;;;;;;;18.87;70.07;100573.10;1715926;81;26448;-71
2021/07/03 05:38:20;;;;;;;13.22;6.85;;;;;;;18.94;70.04;100584.72;1717600;81;25944;-71
2021/07/03 05:40:49;;;;;;;20.37;7.03;;;;;;;18.97;69.79;100579.54;1728373;80;27496;-71
2021/07/03 05:43:18;;;;;;;14.03;7.15;;;;;;;18.93;69.75;100588.42;1716032;81;25712;-71
2021/07/03 05:45:46;;;;;;;11.60;6.33;;;;;;;18.94;69.68;100579.29;1721137;80;26490;-71
2021/07/03 05:48:12;;;;;;;15.20;7.42;;;;;;;18.96;69.66;100581.39;1730280;81;25854;-71
2021/07/03 05:50:38;;;;;;;17.45;7.25;;;;;;;18.98;69.56;100582.63;1727844;81;26412;-71
2021/07/03 05:53:06;;;;;;;13.05;7.47;;;;;;;19.02;69.51;100585.47;1726266;81;27467;-71
2021/07/03 05:55:33;;;;;;;11.57;6.47;;;;;;;19.01;69.42;100588.68;1726715;81;25852;-71
2021/07/03 05:58:02;;;;;;;12.00;6.30;;;;;;;19.06;69.43;100586.47;1725427;81;25859;-71
2021/07/03 06:00:30;;;;;;;15.48;7.50;;;;;;;19.09;69.26;100584.86;1729852;81;26344;-71
2021/07/03 06:02:56;;;;;;;15.55;6.47;;;;;;;19.14;69.24;100592.64;1720350;80;25783;-72
2021/07/03 06:05:23;;;;;;;17.15;5.85;;;;;;;19.13;68.60;100596.34;1734752;80;45599;-71
2021/07/03 06:07:52;;;;;;;11.65;5.33;;;;;;;19.11;68.53;100594.25;1728124;80;25767;-71
2021/07/03 06:10:18;;;;;;;18.42;5.70;;;;;;;19.10;68.24;100595.23;1709952;81;25503;-72
2021/07/03 06:12:48;;;;;;;10.53;5.62;;;;;;;19.13;68.15;100590.91;1714778;81;25780;-71
2021/07/03 06:15:14;;;;;;;12.95;6.45;;;;;;;19.19;67.90;100591.78;1718520;80;25834;-72
2021/07/03 06:17:42;;;;;;;14.58;6.10;;;;;;;19.27;67.75;100595.25;1708333;81;27563;-71
2021/07/03 06:20:13;;;;;;;15.38;6.35;;;;;;;19.31;67.47;100600.31;1717867;80;25833;-71
2021/07/03 06:22:40;;;;;;;16.30;6.03;;;;;;;19.34;67.28;100599.20;1704666;81;25724;-72
2021/07/03 06:25:10;;;;;;;13.45;5.87;;;;;;;19.40;67.13;100605.50;1720946;81;26287;-71
2021/07/03 06:27:37;;;;;;;11.40;6.40;;;;;;;19.46;66.97;100595.49;1714958;80;26427;-72
2021/07/03 06:30:08;;;;;;;16.77;5.67;;;;;;;19.52;66.58;100591.44;1706471;82;28185;-72
2021/07/03 06:32:35;;;;;;;9.70;4.92;;;;;;;19.52;66.52;100590.95;1707017;82;25719;-72
2021/07/03 06:35:01;;;;;;;14.13;6.03;;;;;;;19.63;66.62;100590.07;1705950;82;25761;-72
2021/07/03 06:37:29;;;;;;;16.82;6.08;;;;;;;19.75;66.42;100589.92;1707901;81;25828;-72
2021/07/03 06:39:57;;;;;;;23.87;6.47;;;;;;;19.76;66.33;100592.16;1706020;81;26024;-72
2021/07/03 06:42:24;;;;;;;12.73;6.03;;;;;;;19.78;66.32;100593.75;1711853;80;28233;-73
2021/07/03 06:44:52;;;;;;;13.22;6.35;;;;;;;19.85;66.17;100604.99;1711555;81;25744;-70
2021/07/03 06:47:21;;;;;;;14.50;5.85;;;;;;;19.95;65.79;100613.26;1717510;81;25755;-70
2021/07/03 06:49:47;;;;;;;16.07;5.47;;;;;;;20.01;65.43;100610.02;1708604;82;26247;-70
2021/07/03 06:52:14;;;;;;;10.53;4.90;;;;;;;20.03;64.90;100619.79;1711126;81;25797;-70
2021/07/03 06:54:42;;;;;;;40.58;5.75;;;;;;;20.00;64.78;100605.58;1721431;80;27923;-71
2021/07/03 06:57:09;;;;;;;12.55;5.05;;;;;;;20.02;64.09;100611.75;1712846;81;26314;-71
2021/07/03 06:59:36;;;;;;;10.03;4.45;;;;;;;20.02;63.77;100615.84;1717387;81;26079;-71
2021/07/03 07:02:04;;;;;;;6.90;4.10;;;;;;;19.99;63.55;100612.02;1711586;81;26507;-71
2021/07/03 07:04:31;;;;;;;10.70;4.37;;;;;;;20.01;63.69;100621.77;1711744;81;25689;-71
2021/07/03 07:06:59;;;;;;;9.50;4.03;;;;;;;20.02;63.46;100613.12;1712465;81;27471;-72
2021/07/03 07:09:27;;;;;;;19.65;5.30;;;;;;;20.00;62.88;100619.18;1729200;80;25739;-70
2021/07/03 07:11:57;;;;;;;14.50;4.65;;;;;;;19.94;62.69;100618.33;1728004;80;25779;-70
2021/07/03 07:14:27;;;;;;;7.17;4.12;;;;;;;19.95;62.80;100615.98;1723769;80;26326;-70
2021/07/03 07:16:54;;;;;;;10.60;3.72;;;;;;;19.97;62.08;100615.36;1729751;81;26384;-71
2021/07/03 07:19:23;;;;;;;9.50;4.28;;;;;;;19.97;62.37;100616.71;1731452;81;28092;-71
2021/07/03 07:21:48;;;;;;;9.05;4.17;;;;;;;20.01;62.30;100610.89;1729507;81;25711;-71
2021/07/03 07:24:16;;;;;;;14.75;4.45;;;;;;;20.09;62.12;100610.25;1735446;80;25928;-73
2021/07/03 07:26:45;;;;;;;32.75;4.78;;;;;;;20.14;61.55;100609.38;1732820;81;25830;-72
2021/07/03 07:29:11;;;;;;;63.90;5.30;;;;;;;20.08;60.47;100603.95;1729545;79;25761;-72
2021/07/03 07:31:37;;;;;;;38.55;5.97;;;;;;;20.06;59.51;100608.65;1709175;81;27438;-73
2021/07/03 07:34:06;;;;;;;12.33;4.83;;;;;;;20.08;59.00;100613.97;1728853;81;26466;-73
2021/07/03 07:36:33;;;;;;;9.30;4.80;;;;;;;20.10;59.62;100607.41;1732653;80;25787;-71
2021/07/03 07:38:58;;;;;;;17.90;4.42;;;;;;;20.15;59.36;100619.27;1739451;80;26211;-72
2021/07/03 07:41:25;;;;;;;5.80;3.83;;;;;;;20.18;59.22;100608.12;1735216;80;25790;-69
2021/07/03 07:43:53;;;;;;;15.28;3.90;;;;;;;20.26;58.44;100611.06;1729555;81;27405;-70
2021/07/03 07:46:18;;;;;;;20.92;3.60;;;;;;;20.33;57.47;100607.33;1732358;81;25747;-69
2021/07/03 07:48:46;;;;;;;4.33;3.55;;;;;;;20.45;57.71;100617.70;1724024;81;26613;-70
2021/07/03 07:51:14;;;;;;;12.80;3.58;;;;;;;20.62;56.84;100604.38;1733608;79;26191;-71
2021/07/03 07:53:41;;;;;;;8.18;3.52;;;;;;;20.62;56.84;100604.38;1725124;81;25947;-71
2021/07/03 07:56:09;;;;;;;8.58;3.70;;;;;;;20.62;55.23;100599.43;1728029;80;27518;-71
2021/07/03 07:58:37;;;;;;;9.33;4.33;;;;;;;20.57;55.99;100597.59;1738932;80;26252;-72
2021/07/03 08:01:03;;;;;;;11.70;3.62;;;;;;;20.62;55.88;100589.40;1733102;81;25787;-72
2021/07/03 08:03:30;;;;;;;11.65;4.28;;;;;;;20.67;55.52;100595.31;1731316;81;26047;-71
2021/07/03 08:05:56;;;;;;;16.00;4.58;;;;;;;20.71;55.31;100600.00;1735544;80;25782;-69
2021/07/03 08:08:26;;;;;;;39.40;4.83;;;;;;;20.72;54.82;100605.31;1733362;80;27505;-65
2021/07/03 08:10:55;;;;;;;14.13;3.77;;;;;;;20.71;54.73;100604.95;1722141;80;25976;-64
2021/07/03 08:13:22;;;;;;;5.17;3.45;;;;;;;20.62;54.63;100579.00;1705803;80;26017;-64
2021/07/03 08:15:50;;;;;;;4.33;3.50;;;;;;;20.76;54.60;100601.83;1718691;80;25878;-65
2021/07/03 08:18:20;;;;;;;7.58;4.10;;;;;;;20.77;54.53;100602.69;1713415;80;25792;-65
2021/07/03 08:20:46;;;;;;;8.33;3.83;;;;;;;20.63;54.48;100576.15;1716599;81;27438;-65
2021/07/03 08:23:14;;;;;;;11.33;3.75;;;;;;;20.83;53.68;100594.81;1718512;79;26582;-66
2021/07/03 08:25:42;;;;;;;11.08;3.72;;;;;;;20.71;53.97;100572.77;1715449;80;25872;-65
2021/07/03 08:28:08;;;;;;;52.15;6.12;;;;;;;20.71;53.97;100572.77;1707540;82;25813;-65
2021/07/03 08:30:36;;;;;;;7.00;3.65;;;;;;;21.21;54.20;100594.68;1715217;82;25856;-66
2021/07/03 08:33:06;;;;;;;7.47;4.20;;;;;;;21.21;54.20;100594.68;1704966;82;27466;-66
2021/07/03 08:35:34;;;;;;;7.78;3.77;;;;;;;21.27;53.91;100607.30;1706259;81;25961;-66
2021/07/03 08:38:01;;;;;;;9.80;3.30;;;;;;;21.24;53.70;100591.71;1711215;81;25758;-66
2021/07/03 08:40:31;;;;;;;39.15;4.65;;;;;;;21.32;53.09;100598.71;1714864;81;25835;-63
2021/07/03 08:42:59;;;;;;;16.93;3.40;;;;;;;21.32;53.09;100598.71;1713312;80;25740;-65
2021/07/03 08:45:25;;;;;;;4.37;2.67;;;;;;;21.37;53.12;100601.89;1723431;81;26968;-65
2021/07/03 08:47:52;;;;;;;3.20;2.40;;;;;;;21.42;52.75;100602.84;1717729;80;26709;-65
2021/07/03 08:50:19;;;;;;;13.70;2.80;;;;;;;21.36;52.18;100596.08;1702319;81;25883;-65
2021/07/03 08:52:46;;;;;;;16.40;3.15;;;;;;;21.38;50.91;100602.25;1703317;80;26523;-66
2021/07/03 08:55:23;;;;;;;91.78;5.85;;;;;;;21.37;50.43;100593.71;1704917;82;25738;-65
2021/07/03 08:57:55;;;;;;;17.27;2.70;;;;;;;21.44;48.58;100592.16;1722724;80;27444;-65
2021/07/03 09:00:38;;;;;;;8.48;2.80;;;;;;;21.51;47.34;100579.70;1704419;82;27200;-66
2021/07/03 09:03:16;;;;;;;7.78;3.20;;;;;;;21.42;46.45;100596.03;1699557;80;25852;-66
2021/07/03 09:05:51;;;;;;;5.03;2.25;;;;;;;21.42;46.45;100596.03;1698137;82;25777;-66
2021/07/03 09:08:19;;;;;;;7.08;3.05;;;;;;;21.47;45.14;100591.03;1701333;82;25835;-66
2021/07/03 09:10:47;;;;;;;3.85;2.10;;;;;;;21.47;45.14;100591.03;1722483;81;27489;-66
2021/07/03 09:13:13;;;;;;;2.75;2.33;;;;;;;21.45;45.56;100582.12;1725140;81;25733;-66
2021/07/03 09:15:43;;;;;;;16.52;2.87;;;;;;;21.49;45.30;100580.84;1730807;80;25759;-66
2021/07/03 09:18:16;;;;;;;13.75;2.60;;;;;;;21.54;45.75;100581.30;1731362;80;26045;-66
2021/07/03 09:20:57;;;;;;;10.93;2.17;;;;;;;21.66;44.70;100576.09;1735019;80;25800;-66
2021/07/03 09:23:40;;;;;;;14.15;2.67;;;;;;;21.65;44.36;100576.59;1726825;80;27457;-66
2021/07/03 09:26:10;;;;;;;2.87;2.55;;;;;;;21.66;43.86;100579.69;1732216;80;26053;-66
2021/07/03 09:28:45;;;;;;;10.30;2.42;;;;;;;21.67;43.72;100572.36;1731456;81;26142;-67
2021/07/03 09:31:17;;;;;;;17.35;3.22;;;;;;;21.71;43.87;100567.85;1714344;81;26322;-66
2021/07/03 09:33:51;;;;;;;14.00;2.67;;;;;;;21.68;43.00;100561.81;1732017;80;25741;-66
2021/07/03 09:36:34;;;;;;;5.87;2.85;;;;;;;21.67;43.17;100565.04;1732962;81;26311;-66
2021/07/03 09:39:02;;;;;;;6.83;2.95;;;;;;;21.72;43.56;100563.26;1727394;80;25733;-66
2021/07/03 09:41:36;;;;;;;3.87;2.70;;;;;;;21.74;44.11;100569.94;1730370;81;25767;-66
2021/07/03 09:44:11;;;;;;;5.78;2.87;;;;;;;21.81;43.98;100571.97;1732512;80;26846;-66
2021/07/03 09:46:50;;;;;;;13.90;3.37;;;;;;;21.91;44.60;100556.98;1728818;81;25790;-67
2021/07/03 09:49:25;;;;;;;4.22;2.90;;;;;;;22.02;44.36;100559.61;1730698;82;27365;-66
2021/07/03 09:51:56;;;;;;;4.10;2.60;;;;;;;21.92;44.41;100560.06;1730991;82;26052;-66
2021/07/03 09:54:26;;;;;;;6.90;2.80;;;;;;;21.87;44.64;100546.84;1729948;82;25709;-66
2021/07/03 09:56:59;;;;;;;7.42;3.08;;;;;;;21.89;44.47;100566.67;1729498;82;32297;-66
2021/07/03 09:59:36;;;;;;;4.42;3.05;;;;;;;21.90;44.34;100557.48;1730025;82;25653;-66
2021/07/03 10:02:03;;;;;;;3.85;2.65;;;;;;;22.00;44.59;100562.95;1731127;82;28225;-68
2021/07/03 10:04:29;;;;;;;6.75;2.92;;;;;;;22.02;43.98;100559.61;1730766;82;25649;-67
2021/07/03 10:07:09;;;;;;;40.40;4.55;;;;;;;22.07;44.65;100547.77;1731125;82;25689;-66
2021/07/03 10:09:50;;;;;;;9.38;3.33;;;;;;;22.22;44.61;100554.53;1728967;82;25748;-65
2021/07/03 10:12:33;;;;;;;17.55;3.55;;;;;;;22.37;44.36;100559.56;1708204;82;25706;-66
2021/07/03 10:14:59;;;;;;;8.95;3.40;;;;;;;22.40;44.11;100550.57;1707486;82;27438;-66
2021/07/03 10:17:32;;;;;;;56.20;5.75;;;;;;;22.47;44.46;100544.02;1707728;82;25673;-66
2021/07/03 10:19:58;;;;;;;10.08;3.05;;;;;;;22.57;44.78;100544.88;1707802;83;25680;-67
2021/07/03 10:22:33;;;;;;;4.08;3.00;;;;;;;22.71;44.39;100555.86;1708555;83;25732;-68
2021/07/03 10:25:15;;;;;;;17.17;3.95;;;;;;;22.66;44.37;100542.63;1707414;83;25633;-67
2021/07/03 10:27:55;;;;;;;6.33;3.30;;;;;;;22.75;43.93;100548.58;1707893;83;27567;-66
2021/07/03 10:30:32;;;;;;;8.98;3.75;;;;;;;22.72;43.78;100548.87;1707389;82;27266;-67
2021/07/03 10:33:04;;;;;;;19.37;4.22;;;;;;;22.56;43.99;100543.16;1707962;82;25630;-67
2021/07/03 10:35:53;;;;;;;68.85;5.62;;;;;;;22.66;43.95;100533.07;1707598;83;25687;-67
2021/07/03 10:38:29;;;;;;;11.85;3.33;;;;;;;22.74;44.21;100552.83;1707317;84;25644;-66
2021/07/03 10:41:18;;;;;;;14.25;3.65;;;;;;;22.76;43.83;100555.77;1708246;83;27491;-67
2021/07/03 10:43:49;;;;;;;45.83;4.65;;;;;;;22.77;43.73;100544.34;1707649;82;26027;-68
2021/07/03 10:46:33;;;;;;;49.88;5.20;;;;;;;22.80;43.42;100539.47;1707426;82;25602;-66
2021/07/03 10:49:09;;;;;;;7.95;3.15;;;;;;;22.68;43.45;100537.88;1702121;82;26520;-66
2021/07/03 10:51:45;;;;;;;15.43;3.52;;;;;;;22.65;44.00;100554.06;1702907;82;25808;-65
2021/07/03 10:54:21;;;;;;;60.63;7.20;;;;;;;22.76;43.88;100541.25;1704527;82;27511;-68
2021/07/03 10:57:07;;;;;;;21.60;3.83;;;;;;;22.76;43.45;100542.62;1695876;82;26512;-68
2021/07/03 10:59:39;;;;;;;7.15;3.30;;;;;;;22.72;43.74;100543.92;1706142;82;25843;-68
2021/07/03 11:02:16;;;;;;;7.40;3.17;;;;;;;22.84;43.37;100557.30;1709162;82;25984;-68
2021/07/03 11:04:52;;;;;;;7.35;3.37;;;;;;;22.76;43.21;100548.94;1693785;81;25807;-67
2021/07/03 11:07:36;;;;;;;45.00;4.37;;;;;;;22.81;43.83;100540.34;1710291;82;27505;-67
2021/07/03 11:10:22;;;;;;;7.83;2.77;;;;;;;23.02;43.79;100546.46;1712876;81;26048;-68
2021/07/03 11:12:55;;;;;;;8.10;3.00;;;;;;;22.93;43.50;100544.63;1706415;81;25725;-67
2021/07/03 11:15:25;;;;;;;11.65;3.00;;;;;;;22.94;43.39;100540.38;1732869;80;26763;-68
2021/07/03 11:17:55;;;;;;;5.45;2.60;;;;;;;22.98;43.74;100547.27;1727782;81;25764;-66
2021/07/03 11:20:28;;;;;;;;;;;;;;;23.09;43.22;100535.80;1736395;80;28283;-66
2021/07/03 11:22:56;;;;;;;30.02;4.72;;;;;;;23.01;43.75;100531.58;1735518;80;26216;-66
2021/07/03 11:25:32;;;;;;;9.15;3.25;;;;;;;22.87;43.66;100539.23;1729180;80;26483;-65
2021/07/03 11:28:12;;;;;;;15.88;3.72;;;;;;;22.88;44.09;100531.91;1728090;80;25823;-68